Time;durP1;ratioP1;P1;durP2;ratioP2;P2;SDS_P1;SDS_P2;PMS_P1;PMS_P2;Temp;Humidity;BMP_temperature;BMP_pressure;BME280_temperature;BME280_humidity;BME280_pressure;Samples;Min_cycle;Max_cycle;Signal;HPM_P1;HPM_P2
2022/11/10 00:02:18;;;;;;;14.23;10.32;;;;;;;17.85;68.88;97068.28;10429189;28;20495;-30
2022/11/10 00:07:36;;;;;;;12.80;9.73;;;;;;;17.87;66.89;97071.69;10432106;28;20506;-30
2022/11/10 00:13:02;;;;;;;11.07;8.70;;;;;;;17.80;67.45;97071.59;10430583;28;20872;-30
2022/11/10 00:18:21;;;;;;;15.18;10.10;;;;;;;17.79;67.99;97083.44;10435232;28;20045;-31
2022/11/10 00:23:40;;;;;;;12.35;9.45;;;;;;;17.79;67.90;97095.22;10427224;28;20045;-29
2022/11/10 00:28:59;;;;;;;13.55;10.25;;;;;;;17.75;68.12;97098.59;10429627;28;20116;-30
2022/11/10 00:34:18;;;;;;;13.90;9.85;;;;;;;17.74;68.13;97101.97;10428423;28;20033;-30
2022/11/10 00:39:37;;;;;;;12.98;9.35;;;;;;;17.74;68.15;97109.56;10434639;28;20061;-30
2022/11/10 00:44:56;;;;;;;13.02;9.13;;;;;;;17.73;68.12;97120.53;10436737;28;20041;-30
2022/11/10 00:50:16;;;;;;;15.23;10.00;;;;;;;17.73;68.28;97120.53;10440098;28;20049;-30
2022/11/10 00:55:39;;;;;;;14.15;9.40;;;;;;;17.71;68.46;97117.09;10440939;28;20046;-30
2022/11/10 01:01:03;;;;;;;13.20;9.13;;;;;;;17.80;69.24;97128.19;10435757;28;20111;-30
2022/11/10 01:06:23;;;;;;;13.15;9.38;;;;;;;17.79;69.00;97120.56;10435131;28;20120;-30
2022/11/10 01:11:42;;;;;;;11.32;8.43;;;;;;;17.83;67.65;97119.75;10439052;28;20041;-32
2022/11/10 01:17:01;;;;;;;10.35;7.80;;;;;;;17.85;66.76;97118.09;10435487;28;20048;-30
2022/11/10 01:22:20;;;;;;;10.50;8.32;;;;;;;17.82;66.34;97125.66;10434793;28;20037;-30
2022/11/10 01:27:39;;;;;;;11.93;9.07;;;;;;;17.82;66.29;97140.88;10436686;28;20038;-30
2022/11/10 01:32:57;;;;;;;12.63;8.23;;;;;;;17.79;66.11;97145.88;10438967;28;20049;-30
2022/11/10 01:38:16;;;;;;;11.93;8.77;;;;;;;17.80;66.90;97152.63;10436927;28;20056;-30
2022/11/10 01:43:35;;;;;;;10.70;7.75;;;;;;;17.79;67.26;97158.53;10438851;28;20065;-29
2022/11/10 01:48:59;;;;;;;11.30;8.65;;;;;;;17.82;67.73;97173.78;10435926;28;20042;-30
2022/11/10 01:54:26;;;;;;;13.85;9.25;;;;;;;17.81;67.60;97169.53;10433527;28;20033;-32
2022/11/10 01:59:46;;;;;;;12.90;8.45;;;;;;;17.76;67.95;97171.19;10435884;28;20037;-31
2022/11/10 02:05:06;;;;;;;15.68;9.00;;;;;;;17.84;68.32;97180.53;10438167;28;20136;-30
2022/11/10 02:10:25;;;;;;;11.30;7.68;;;;;;;17.81;68.62;97187.25;10433485;28;20049;-30
2022/11/10 02:15:44;;;;;;;9.75;7.47;;;;;;;17.89;66.16;97183.97;10438562;28;20037;-31
2022/11/10 02:21:05;;;;;;;9.48;7.43;;;;;;;17.88;66.34;97189.03;10431731;28;20454;-29
2022/11/10 02:26:28;;;;;;;10.40;7.00;;;;;;;17.85;66.68;97194.06;10439484;28;20044;-31
2022/11/10 02:31:47;;;;;;;12.85;7.72;;;;;;;17.83;66.98;97194.03;10430751;28;20041;-29
2022/11/10 02:37:08;;;;;;;12.18;7.35;;;;;;;17.83;66.65;97205.88;10435240;28;20439;-30
2022/11/10 02:42:26;;;;;;;11.95;8.35;;;;;;;17.81;67.40;97221.06;10437089;28;20033;-32
2022/11/10 02:47:46;;;;;;;10.57;6.88;;;;;;;17.81;67.56;97230.31;10431736;28;20092;-30
2022/11/10 02:53:05;;;;;;;13.48;7.53;;;;;;;17.81;67.21;97230.31;10433138;28;20116;-29
2022/11/10 02:58:24;;;;;;;10.65;7.68;;;;;;;17.81;67.32;97230.31;10434724;28;20085;-29
2022/11/10 03:03:43;;;;;;;9.35;6.82;;;;;;;17.82;67.20;97232.88;10439046;28;20072;-29
2022/11/10 03:09:02;;;;;;;11.88;7.25;;;;;;;17.85;68.14;97239.66;10435674;28;20049;-31
2022/11/10 03:14:21;;;;;;;12.55;7.38;;;;;;;17.84;68.03;97245.56;10432770;28;20106;-31
2022/11/10 03:19:40;;;;;;;9.23;7.05;;;;;;;17.90;66.76;97256.59;10430279;28;20419;-31
2022/11/10 03:24:59;;;;;;;12.65;6.70;;;;;;;17.92;65.97;97259.16;10430003;28;20045;-30
2022/11/10 03:30:18;;;;;;;9.65;6.63;;;;;;;17.90;66.50;97255.78;10431487;28;20033;-30
2022/11/10 03:35:37;;;;;;;8.40;6.70;;;;;;;17.89;66.45;97248.97;10432263;28;20041;-30
2022/11/10 03:40:56;;;;;;;10.07;6.55;;;;;;;17.88;66.38;97254.88;10431093;28;20408;-31
2022/11/10 03:46:16;;;;;;;7.47;6.40;;;;;;;17.87;66.76;97270.91;10426674;28;20049;-31
2022/11/10 03:51:35;;;;;;;8.90;6.18;;;;;;;17.83;66.95;97284.41;10431626;28;20049;-31
2022/11/10 03:56:54;;;;;;;8.32;6.10;;;;;;;17.85;67.04;97308.06;10431934;28;20040;-30
2022/11/10 04:02:13;;;;;;;8.48;7.05;;;;;;;17.82;67.34;97316.47;10426680;28;20037;-31
2022/11/10 04:18:48;;;;;;;8.25;6.95;;;;;;;17.86;67.50;97328.34;10431652;28;20073;-30
2022/11/10 04:24:08;;;;;;;8.93;6.22;;;;;;;17.84;67.01;97319.03;10428656;28;20033;-30
2022/11/10 04:29:27;;;;;;;8.07;6.10;;;;;;;17.91;66.13;97333.47;10432806;28;20045;-30
2022/11/10 04:34:46;;;;;;;9.27;6.35;;;;;;;17.91;65.93;97339.38;10421485;28;20044;-30
2022/11/10 04:40:05;;;;;;;8.68;6.18;;;;;;;17.91;66.04;97338.53;10426257;28;20041;-29
2022/11/10 04:45:24;;;;;;;8.50;5.60;;;;;;;17.92;65.79;97332.63;10388514;28;20522;-30
2022/11/10 04:50:43;;;;;;;7.35;5.82;;;;;;;17.94;65.81;97349.56;10389353;28;20511;-31
2022/11/10 04:56:02;;;;;;;7.68;5.95;;;;;;;17.92;66.31;97350.38;10398325;28;20445;-30
2022/11/10 05:01:25;;;;;;;6.60;5.38;;;;;;;17.96;66.10;97357.16;10403751;28;20034;-30
2022/11/10 05:06:44;;;;;;;8.50;6.10;;;;;;;17.93;66.15;97367.25;10405142;28;20064;-30
2022/11/10 05:12:03;;;;;;;7.40;6.15;;;;;;;18.00;65.97;97382.53;10418988;28;20053;-30
2022/11/10 05:17:22;;;;;;;7.88;5.93;;;;;;;17.95;66.15;97385.84;10402348;28;20041;-30
2022/11/10 05:23:36;;;;;;;7.43;5.72;;;;;;;18.01;66.45;97396.06;10412102;28;20044;-30
2022/11/10 05:28:25;;;;;;;8.75;5.13;;;;;;;17.94;66.54;97389.22;10438355;28;20040;-30
2022/11/10 05:33:44;;;;;;;7.57;5.60;;;;;;;17.99;66.07;97397.75;10436897;28;20045;-30
2022/11/10 05:39:03;;;;;;;8.45;6.15;;;;;;;17.98;65.59;97407.00;10434356;28;20044;-30
2022/11/10 05:44:22;;;;;;;8.35;5.13;;;;;;;18.01;65.42;97401.97;10448506;28;20040;-29
2022/11/10 05:49:41;;;;;;;7.53;5.68;;;;;;;18.01;65.31;97406.22;10430120;28;20048;-30
2022/11/10 05:55:00;;;;;;;5.32;4.40;;;;;;;18.01;65.62;97424.78;10434117;28;20052;-30
2022/11/10 06:00:22;;;;;;;8.60;4.18;;;;;;;17.84;64.83;97427.94;10428805;28;20037;-29
2022/11/10 06:05:41;;;;;;;5.65;4.45;;;;;;;17.80;64.79;97428.72;10433290;28;20068;-29
2022/11/10 06:11:00;;;;;;;6.05;4.20;;;;;;;17.87;64.72;97435.56;10436446;28;20053;-30
2022/11/10 06:16:19;;;;;;;6.00;4.00;;;;;;;17.86;64.55;97444.00;10433575;28;20120;-30
2022/11/10 06:21:38;;;;;;;6.10;4.03;;;;;;;17.85;64.65;97444.84;10433221;28;20032;-30
2022/11/10 06:26:57;;;;;;;10.23;3.85;;;;;;;17.87;65.40;97448.22;10431347;28;20049;-31
2022/11/10 06:32:16;;;;;;;7.93;3.70;;;;;;;17.89;65.94;97449.97;10431963;28;20045;-32
2022/11/10 06:37:37;;;;;;;8.30;3.53;;;;;;;17.58;63.46;97469.78;10437878;28;20045;-30
2022/11/10 06:42:57;;;;;;;5.65;3.30;;;;;;;17.77;63.56;97499.59;10438261;28;20033;-29
2022/11/10 06:48:16;;;;;;;6.20;3.63;;;;;;;17.83;64.29;97494.63;10437714;28;20041;-30
2022/11/10 06:53:35;;;;;;;4.95;3.55;;;;;;;17.87;64.21;97501.44;10432217;28;20041;-30
2022/11/10 06:58:53;;;;;;;10.18;4.72;;;;;;;17.88;64.43;97513.25;10434366;28;20037;-29
2022/11/10 07:04:14;;;;;;;5.38;3.30;;;;;;;17.83;64.52;97504.75;10438234;28;20041;-30
2022/11/10 07:09:33;;;;;;;3.95;3.15;;;;;;;17.90;64.63;97529.38;10428028;28;20080;-30
2022/11/10 07:14:52;;;;;;;4.82;2.70;;;;;;;17.90;64.98;97540.31;10438123;28;20439;-30
2022/11/10 07:20:11;;;;;;;5.57;3.35;;;;;;;17.90;64.65;97552.16;10432567;28;20036;-30
2022/11/10 07:25:34;;;;;;;5.35;3.05;;;;;;;17.91;64.67;97557.22;10437743;28;20036;-29
2022/11/10 07:30:53;;;;;;;4.05;3.13;;;;;;;17.91;64.78;97569.91;10433610;28;20041;-30
2022/11/10 07:36:12;;;;;;;5.03;3.38;;;;;;;17.89;65.28;97576.63;10430323;28;20049;-31
2022/11/10 07:41:31;;;;;;;7.85;3.33;;;;;;;17.92;65.22;97585.97;10435837;28;20041;-30
2022/11/10 07:46:50;;;;;;;10.93;4.82;;;;;;;17.90;65.55;97585.09;10432266;28;20045;-30
2022/11/10 07:52:09;;;;;;;5.22;3.00;;;;;;;17.90;65.30;97592.69;10430141;28;20529;-30
2022/11/10 07:57:28;;;;;;;5.75;2.85;;;;;;;17.90;64.96;97596.06;10432996;28;20037;-29
2022/11/10 08:02:47;;;;;;;5.72;2.63;;;;;;;17.92;64.80;97603.69;10429892;28;20427;-30
2022/11/10 08:08:07;;;;;;;3.97;2.83;;;;;;;17.91;64.91;97612.13;10428688;28;20045;-31
2022/11/10 08:13:26;;;;;;;3.85;2.67;;;;;;;17.93;64.97;97626.50;10429743;28;20091;-31
2022/11/10 08:18:45;;;;;;;5.63;2.72;;;;;;;17.94;64.28;97627.38;10433294;28;20473;-30
2022/11/10 08:24:04;;;;;;;3.38;2.65;;;;;;;17.93;64.88;97635.81;10426430;28;20037;-29
2022/11/10 08:29:23;;;;;;;5.97;2.83;;;;;;;17.90;64.91;97630.69;10433389;28;20491;-29
2022/11/10 08:34:42;;;;;;;4.35;2.92;;;;;;;17.92;65.10;97634.94;10428325;28;20037;-30
2022/11/10 08:40:01;;;;;;;4.40;3.00;;;;;;;17.91;65.19;97637.47;10429048;28;20048;-30
2022/11/10 08:45:20;;;;;;;4.00;3.60;;;;;;;17.95;65.38;97646.81;10431715;28;20041;-30
2022/11/10 08:50:40;;;;;;;5.57;3.08;;;;;;;17.92;65.50;97655.19;10432605;28;20041;-31
2022/11/10 08:55:59;;;;;;;4.43;3.03;;;;;;;17.93;65.33;97661.13;10432775;28;20040;-30
2022/11/10 09:01:18;;;;;;;3.85;3.03;;;;;;;17.92;65.10;97669.56;10432434;28;20036;-30
2022/11/10 09:06:37;;;;;;;4.15;2.70;;;;;;;17.93;64.89;97671.28;10435331;28;20075;-29
2022/11/10 09:11:56;;;;;;;3.20;2.67;;;;;;;17.92;64.74;97679.69;10438406;28;20045;-31
2022/11/10 09:17:14;;;;;;;3.72;3.10;;;;;;;17.94;64.39;97683.09;10436221;28;20037;-30
2022/11/10 09:22:35;;;;;;;4.03;2.63;;;;;;;17.94;64.73;97686.50;10434725;28;20037;-30
2022/11/10 09:27:54;;;;;;;4.18;2.55;;;;;;;17.95;64.67;97688.22;10435645;28;20049;-31
2022/11/10 09:33:13;;;;;;;3.78;2.65;;;;;;;17.96;64.91;97696.66;10431530;28;20049;-31
2022/11/10 09:38:32;;;;;;;3.67;2.60;;;;;;;17.87;65.14;97691.41;10442380;28;20449;-30
2022/11/10 09:43:51;;;;;;;3.30;2.80;;;;;;;17.94;64.72;97708.44;10437849;28;20045;-29
2022/11/10 09:49:26;;;;;;;3.05;2.75;;;;;;;17.94;64.98;97713.50;10431773;28;20116;-31
2022/11/10 09:54:52;;;;;;;4.07;3.30;;;;;;;17.93;65.44;97721.94;10432467;28;20041;-31
2022/11/10 10:00:16;;;;;;;3.63;2.63;;;;;;;17.94;65.42;97738.84;10434610;28;20045;-30
2022/11/10 10:06:01;;;;;;;3.28;2.33;;;;;;;17.93;64.92;97734.63;10434643;28;20038;-30
2022/11/10 10:12:19;;;;;;;4.90;3.10;;;;;;;17.97;64.67;97741.44;10439799;28;20049;-31
2022/11/10 10:17:56;;;;;;;3.93;2.73;;;;;;;17.95;64.79;97735.50;10472468;28;20044;-31
2022/11/10 10:23:24;;;;;;;3.17;2.17;;;;;;;17.94;64.95;97751.50;10428507;28;20040;-29
2022/11/10 10:28:46;;;;;;;2.58;2.30;;;;;;;17.94;65.14;97742.25;10433698;28;20040;-31
2022/11/10 10:34:13;;;;;;;3.33;2.72;;;;;;;17.94;64.93;97733.78;10434057;28;20045;-29
2022/11/10 10:39:40;;;;;;;2.53;2.03;;;;;;;17.94;64.95;97731.25;10438465;28;20402;-30
2022/11/10 10:45:14;;;;;;;3.05;2.45;;;;;;;17.94;64.69;97728.72;10427521;28;20033;-29
2022/11/10 10:50:40;;;;;;;3.42;2.60;;;;;;;17.93;64.92;97734.63;10432980;28;20045;-30
2022/11/10 10:56:16;;;;;;;3.07;2.30;;;;;;;17.92;65.19;97725.31;10436166;28;20489;-30
2022/11/10 11:01:39;;;;;;;3.70;2.58;;;;;;;17.86;65.45;97713.38;10429751;28;20029;-30
2022/11/10 11:07:04;;;;;;;9.18;2.58;;;;;;;17.91;65.41;97716.00;10431473;28;20037;-29
2022/11/10 11:12:30;;;;;;;3.05;2.50;;;;;;;17.92;65.28;97699.97;10432698;28;20414;-30
2022/11/10 11:18:01;;;;;;;2.55;2.35;;;;;;;17.94;64.84;97698.31;10430254;28;20049;-30
2022/11/10 11:23:58;;;;;;;3.63;3.00;;;;;;;17.98;64.71;97700.09;10429523;28;20041;-30
2022/11/10 11:29:45;;;;;;;2.65;2.30;;;;;;;17.99;64.74;97701.78;10433919;28;20479;-30
2022/11/10 11:35:23;;;;;;;3.00;2.45;;;;;;;18.01;64.41;97715.34;10431380;28;20495;-29
2022/11/10 11:40:52;;;;;;;2.78;2.22;;;;;;;18.00;64.58;97714.47;10429911;28;20312;-30
2022/11/10 11:46:25;;;;;;;4.80;2.75;;;;;;;18.00;64.93;97723.75;10426914;28;20041;-30
2022/11/10 11:51:44;;;;;;;3.65;2.40;;;;;;;17.99;64.76;97733.03;10432110;28;20555;-30
2022/11/10 11:57:19;;;;;;;5.78;2.47;;;;;;;18.02;64.85;97732.25;10432927;28;20430;-30
2022/11/10 12:03:03;;;;;;;3.92;2.22;;;;;;;18.01;64.85;97728.84;10430657;28;20120;-30
2022/11/10 12:08:37;;;;;;;9.60;2.33;;;;;;;18.02;65.10;97717.03;10433266;28;20087;-30
2022/11/10 12:14:34;;;;;;;4.88;2.25;;;;;;;18.01;66.21;97717.88;10426354;28;20512;-30
2022/11/10 12:20:13;;;;;;;7.18;2.50;;;;;;;18.00;66.21;97711.94;10427416;28;20037;-31
2022/11/10 12:25:59;;;;;;;3.83;2.60;;;;;;;18.02;65.46;97717.91;10428512;28;20037;-29
2022/11/10 12:31:24;;;;;;;5.65;2.63;;;;;;;18.03;65.58;97708.59;10431017;28;20049;-31
2022/11/10 12:36:45;;;;;;;6.32;2.30;;;;;;;18.00;64.79;97708.56;10426873;28;20041;-30
2022/11/10 12:42:08;;;;;;;4.97;2.65;;;;;;;18.03;65.56;97709.47;10437869;28;20040;-32
2022/11/10 12:47:41;;;;;;;12.13;2.35;;;;;;;18.06;65.38;97706.09;10438178;28;20120;-30
2022/11/10 12:53:11;;;;;;;7.00;2.58;;;;;;;18.05;65.47;97705.28;10436701;28;20056;-30
2022/11/10 12:58:31;;;;;;;5.95;2.30;;;;;;;18.05;65.52;97691.75;10438579;28;20049;-30
2022/11/10 13:03:57;;;;;;;5.43;2.25;;;;;;;18.03;65.23;97691.72;10443044;28;20112;-30
2022/11/10 13:09:41;;;;;;;6.40;2.60;;;;;;;18.03;65.34;97695.94;10432686;28;20041;-27
2022/11/10 13:15:00;;;;;;;3.88;2.33;;;;;;;18.04;65.36;97684.97;10431230;28;20292;-30
2022/11/10 13:20:37;;;;;;;5.72;2.25;;;;;;;18.02;66.01;97694.22;10436812;28;20041;-30
2022/11/10 13:26:08;;;;;;;5.00;2.53;;;;;;;18.02;66.05;97694.22;10441618;28;20045;-30
2022/11/10 13:31:26;;;;;;;6.05;2.22;;;;;;;18.02;65.36;97701.84;10439448;28;20037;-30
2022/11/10 13:36:47;;;;;;;3.38;2.00;;;;;;;18.03;65.09;97708.59;10435496;28;20037;-30
2022/11/10 13:42:06;;;;;;;5.30;1.90;;;;;;;18.01;65.27;97697.59;10439304;28;20546;-30
2022/11/10 13:47:46;;;;;;;3.80;2.30;;;;;;;17.99;65.17;97717.00;10430055;28;20606;-29
2022/11/10 13:53:18;;;;;;;3.65;1.90;;;;;;;18.00;65.51;97711.94;10438839;28;20037;-30
2022/11/10 13:58:42;;;;;;;4.30;1.90;;;;;;;17.99;65.43;97717.81;10436428;28;20084;-30
2022/11/10 14:04:03;;;;;;;4.93;2.17;;;;;;;18.00;65.22;97716.16;10438291;28;20064;-30
2022/11/10 14:09:27;;;;;;;3.10;2.17;;;;;;;17.98;65.53;97722.91;10431186;28;20044;-30
2022/11/10 14:14:52;;;;;;;3.78;2.10;;;;;;;17.98;65.50;97710.22;10426654;28;20045;-30
2022/11/10 14:20:23;;;;;;;2.95;1.90;;;;;;;17.98;65.51;97720.34;10436883;28;20112;-30
2022/11/10 14:25:42;;;;;;;2.97;2.25;;;;;;;17.96;65.49;97727.06;10435220;28;20069;-30
2022/11/10 14:31:02;;;;;;;4.60;2.00;;;;;;;17.96;66.15;97737.19;10442648;28;20423;-32
2022/11/10 14:36:21;;;;;;;5.53;2.10;;;;;;;17.98;66.37;97751.59;10434993;28;20045;-30
2022/11/10 14:41:46;;;;;;;3.10;2.00;;;;;;;17.96;65.76;97749.84;10431917;28;20041;-30
2022/11/10 14:47:26;;;;;;;2.75;1.90;;;;;;;17.96;65.38;97754.94;10431386;28;20526;-31
2022/11/10 14:52:48;;;;;;;2.78;1.90;;;;;;;17.97;65.58;97754.09;10430561;28;21831;-31
2022/11/10 14:58:13;;;;;;;6.07;2.13;;;;;;;17.97;65.53;97759.16;10425675;28;20673;-30
2022/11/10 15:03:41;;;;;;;2.65;1.85;;;;;;;17.96;65.77;97762.53;10437198;28;20458;-30
2022/11/10 15:09:20;;;;;;;7.65;3.05;;;;;;;17.96;66.41;97762.53;10435337;28;20045;-29
2022/11/10 15:14:43;;;;;;;4.60;1.73;;;;;;;17.95;66.41;97768.44;10428457;28;20042;-30
2022/11/10 15:20:03;;;;;;;6.53;2.28;;;;;;;17.97;65.75;97774.38;10432376;28;20037;-30
2022/11/10 15:25:27;;;;;;;5.00;1.85;;;;;;;17.94;65.83;97776.84;10430421;28;20033;-30
2022/11/10 15:30:56;;;;;;;5.97;2.00;;;;;;;17.96;65.85;97782.78;10435957;28;20049;-30
2022/11/10 15:36:18;;;;;;;3.95;1.80;;;;;;;17.97;66.94;97794.63;10432956;28;20450;-30
2022/11/10 15:41:42;;;;;;;3.80;1.85;;;;;;;17.94;67.21;97790.38;10430449;28;20040;-30
2022/11/10 15:47:01;;;;;;;2.45;1.85;;;;;;;17.99;67.40;97798.91;10423010;28;20049;-30
2022/11/10 15:52:21;;;;;;;5.47;2.10;;;;;;;17.80;64.68;97796.00;10436929;28;20622;-30
2022/11/10 15:57:40;;;;;;;8.77;3.63;;;;;;;17.89;65.37;97799.56;10433236;28;20123;-30
2022/11/10 16:02:59;;;;;;;6.18;1.98;;;;;;;17.89;65.83;97801.22;10429471;28;20049;-31
2022/11/10 16:08:20;;;;;;;5.97;1.95;;;;;;;17.92;66.19;97819.03;10428115;28;20040;-30
2022/11/10 16:13:39;;;;;;;7.00;2.13;;;;;;;17.93;66.89;97808.09;10429910;28;20041;-30
2022/11/10 16:18:58;;;;;;;4.53;1.75;;;;;;;17.93;66.14;97821.59;10431683;28;20041;-30
2022/11/10 16:24:17;;;;;;;3.20;1.98;;;;;;;17.94;65.62;97819.94;10431730;28;20041;-30
2022/11/10 16:29:37;;;;;;;4.28;1.95;;;;;;;17.93;65.49;97831.72;10434439;28;20037;-29
2022/11/10 16:34:56;;;;;;;7.50;1.80;;;;;;;17.93;66.13;97833.44;10430550;28;20681;-29
2022/11/10 16:40:17;;;;;;;4.43;1.90;;;;;;;17.93;66.34;97838.50;10428212;28;20037;-31
2022/11/10 16:45:41;;;;;;;5.60;1.77;;;;;;;17.97;65.88;97841.13;10431091;28;20049;-29
2022/11/10 16:51:01;;;;;;;4.15;2.25;;;;;;;17.98;66.42;97849.59;10431628;28;20045;-29
2022/11/10 16:56:20;;;;;;;4.00;1.80;;;;;;;18.00;66.21;97861.44;10431752;28;20048;-30
2022/11/10 17:01:42;;;;;;;3.42;1.70;;;;;;;18.01;65.94;97868.22;10428911;28;20033;-30
2022/11/10 17:07:01;;;;;;;2.53;1.45;;;;;;;18.02;65.62;97880.09;10422799;28;20455;-32
2022/11/10 17:12:20;;;;;;;2.58;1.50;;;;;;;18.03;65.64;97888.53;10425376;28;20045;-30
2022/11/10 17:17:40;;;;;;;2.85;1.48;;;;;;;18.02;65.48;97890.22;10422903;28;20037;-29
2022/11/10 17:23:01;;;;;;;5.38;2.30;;;;;;;17.98;65.04;97874.94;10438931;28;20285;-30
2022/11/10 17:28:20;;;;;;;2.50;1.67;;;;;;;18.06;65.10;97888.56;10432231;28;20037;-30
2022/11/10 17:33:39;;;;;;;4.97;1.50;;;;;;;18.06;65.06;97894.50;10443798;28;20041;-30
2022/11/10 17:38:58;;;;;;;5.53;1.73;;;;;;;18.03;64.85;97886.00;10434647;28;20045;-30
2022/11/10 17:44:18;;;;;;;2.33;1.40;;;;;;;18.05;64.84;97902.94;10441294;28;20511;-30
2022/11/10 17:49:37;;;;;;;4.40;1.40;;;;;;;18.02;65.26;97899.47;10421363;28;20069;-32
2022/11/10 17:54:55;;;;;;;4.10;1.45;;;;;;;18.03;65.23;97896.13;10429613;28;20041;-30
2022/11/10 18:00:16;;;;;;;4.90;1.92;;;;;;;18.03;65.91;97894.47;10437021;28;20119;-31
2022/11/10 18:05:37;;;;;;;7.65;1.90;;;;;;;18.04;65.40;97892.75;10434166;28;20041;-30
2022/11/10 18:10:59;;;;;;;4.95;1.70;;;;;;;18.09;64.89;97896.25;10444948;28;20041;-29
2022/11/10 18:16:17;;;;;;;4.90;1.88;;;;;;;18.10;64.82;97892.91;10437453;28;20048;-30
2022/11/10 18:21:36;;;;;;;3.60;1.83;;;;;;;18.08;64.95;97894.56;10440689;28;20041;-29
2022/11/10 18:26:55;;;;;;;2.92;1.50;;;;;;;17.99;64.99;97894.38;10415241;28;20033;-29
2022/11/10 18:32:14;;;;;;;3.90;1.50;;;;;;;18.08;64.84;97910.59;10429802;28;20589;-29
2022/11/10 18:37:33;;;;;;;6.00;1.55;;;;;;;17.94;65.25;97895.94;10432248;28;20115;-30
2022/11/10 18:42:56;;;;;;;1.85;1.30;;;;;;;18.10;64.92;97921.66;10437117;28;20459;-29
2022/11/10 18:48:15;;;;;;;5.95;1.50;;;;;;;18.10;65.19;97931.78;10445822;28;20051;-29
2022/11/10 18:53:34;;;;;;;5.38;1.95;;;;;;;18.09;65.12;97926.66;10434223;28;20944;-27
2022/11/10 18:58:53;;;;;;;4.28;1.80;;;;;;;18.13;64.87;97928.44;10434959;28;20430;-28
2022/11/10 19:04:12;;;;;;;3.45;1.50;;;;;;;18.14;65.24;97925.06;10437092;28;20469;-30
2022/11/10 19:09:31;;;;;;;5.10;1.55;;;;;;;18.09;66.28;97932.56;10431927;28;20499;-29
2022/11/10 19:14:50;;;;;;;8.38;2.35;;;;;;;18.05;65.75;97918.16;10429486;28;20041;-30
2022/11/10 19:20:11;;;;;;;6.55;1.80;;;;;;;18.14;65.11;97940.28;10431871;28;20503;-29
2022/11/10 19:25:31;;;;;;;3.42;1.30;;;;;;;18.08;64.94;97925.81;10438004;28;20074;-29
2022/11/10 19:30:50;;;;;;;7.32;1.85;;;;;;;18.12;64.82;97936.84;10428744;28;20041;-29
2022/11/10 19:36:14;;;;;;;7.72;1.90;;;;;;;18.10;65.07;97938.50;10439257;28;20041;-29
2022/11/10 19:41:34;;;;;;;3.33;1.75;;;;;;;18.10;65.14;97953.72;10435141;28;20075;-29
2022/11/10 19:46:54;;;;;;;4.97;1.70;;;;;;;18.08;64.87;97962.97;10426750;28;20049;-30
2022/11/10 19:52:13;;;;;;;4.50;1.45;;;;;;;18.08;64.76;97958.75;10427893;28;20041;-29
2022/11/10 19:57:32;;;;;;;3.28;1.38;;;;;;;18.03;65.42;97955.28;10429911;28;20437;-30
2022/11/10 20:02:51;;;;;;;5.15;1.52;;;;;;;18.09;65.81;97952.00;10424774;28;20333;-29
2022/11/10 20:08:12;;;;;;;2.75;1.27;;;;;;;18.09;65.64;97952.84;10425761;28;20045;-29
2022/11/10 20:13:31;;;;;;;4.05;1.55;;;;;;;18.10;64.91;97953.72;10435369;28;20041;-28
2022/11/10 20:18:51;;;;;;;2.97;1.40;;;;;;;18.03;65.38;97951.88;10428228;28;20423;-30
2022/11/10 20:24:10;;;;;;;3.45;1.52;;;;;;;18.00;65.10;97951.81;10427487;28;20036;-30
2022/11/10 20:29:29;;;;;;;2.33;1.27;;;;;;;18.00;65.12;97956.88;10429505;28;20499;-28
2022/11/10 20:34:47;;;;;;;3.38;0.98;;;;;;;17.96;65.09;97939.91;10427384;28;20033;-29
2022/11/10 20:40:06;;;;;;;1.67;1.00;;;;;;;18.02;64.93;97960.31;10431443;28;20535;-28
2022/11/10 20:45:25;;;;;;;4.05;1.52;;;;;;;17.99;64.96;97958.56;10428239;28;20627;-29
2022/11/10 20:50:44;;;;;;;3.17;1.17;;;;;;;17.99;65.00;97975.47;10429897;28;20072;-29
2022/11/10 20:56:04;;;;;;;2.03;1.38;;;;;;;18.03;64.71;97982.28;10426708;28;20049;-29
2022/11/10 21:01:23;;;;;;;5.93;1.70;;;;;;;18.02;64.13;97960.31;10435119;28;20769;-29
2022/11/10 21:06:42;;;;;;;6.05;2.10;;;;;;;18.09;64.70;97967.22;10431205;28;20037;-29
2022/11/10 21:17:40;;;;;;;6.40;1.85;;;;;;;18.08;64.12;97962.97;10433774;28;20080;-28
2022/11/10 21:22:59;;;;;;;4.20;1.60;;;;;;;18.12;63.65;97995.16;10435844;28;20041;-29
2022/11/10 21:28:18;;;;;;;3.13;1.67;;;;;;;18.13;63.07;97999.41;10435974;28;20037;-30
2022/11/10 21:33:36;;;;;;;2.13;1.92;;;;;;;18.13;63.30;98000.25;10443642;28;20042;-30
2022/11/10 21:38:57;;;;;;;7.43;2.85;;;;;;;18.12;63.26;98002.75;10439361;28;20052;-28
2022/11/10 21:44:16;;;;;;;2.53;2.05;;;;;;;18.10;63.37;97982.47;10433360;28;20041;-30
2022/11/10 21:49:35;;;;;;;3.70;2.25;;;;;;;18.11;63.42;97993.44;10437909;28;20045;-29
2022/11/10 21:54:54;;;;;;;4.82;2.55;;;;;;;18.13;63.63;97989.25;10425976;28;20075;-29
2022/11/10 22:00:13;;;;;;;5.13;2.67;;;;;;;18.18;63.44;97987.69;10435503;28;20041;-28
2022/11/10 22:05:32;;;;;;;7.05;2.50;;;;;;;18.20;62.44;97980.97;10434913;28;20069;-29
2022/11/10 22:22:15;;;;;;;3.42;2.30;;;;;;;18.17;62.27;97988.53;10445490;28;20037;-30
2022/11/10 22:27:34;;;;;;;3.63;2.20;;;;;;;18.16;62.26;97984.28;10438421;28;20414;-30
2022/11/10 22:32:53;;;;;;;4.70;2.55;;;;;;;18.15;62.38;97973.25;10434951;28;20049;-29
2022/11/10 22:38:11;;;;;;;4.20;2.17;;;;;;;18.10;62.74;97968.94;10432867;28;20521;-30
2022/11/10 22:49:10;;;;;;;6.05;2.50;;;;;;;18.05;63.15;97961.22;10433136;28;20059;-30
2022/11/10 22:54:29;;;;;;;6.30;2.10;;;;;;;18.06;62.83;97967.13;10437168;28;20488;-30
2022/11/10 22:59:48;;;;;;;2.15;1.42;;;;;;;18.07;62.74;97963.81;10437948;28;20037;-29
2022/11/10 23:05:07;;;;;;;5.15;1.70;;;;;;;18.12;63.14;97969.81;10439668;28;20044;-29
2022/11/10 23:10:26;;;;;;;2.92;1.73;;;;;;;18.10;62.48;97963.84;10436553;28;20045;-29
2022/11/10 23:15:50;;;;;;;3.38;1.73;;;;;;;18.06;62.94;97957.00;10428389;28;20045;-29
2022/11/10 23:21:12;;;;;;;2.50;1.40;;;;;;;18.03;62.83;97954.41;10442365;28;20029;-29
2022/11/10 23:26:33;;;;;;;2.90;1.73;;;;;;;18.02;63.00;97966.25;10440680;28;20634;-31
2022/11/10 23:31:52;;;;;;;5.22;1.98;;;;;;;18.01;63.08;97958.59;10435949;28;20482;-30
2022/11/10 23:37:11;;;;;;;2.97;1.40;;;;;;;17.97;62.81;97970.34;10440495;28;20040;-27
2022/11/10 23:42:30;;;;;;;2.20;1.63;;;;;;;17.99;62.77;97960.25;10436942;28;20543;-29
2022/11/10 23:47:49;;;;;;;2.65;1.35;;;;;;;17.97;62.78;97966.94;10441350;28;20052;-29
2022/11/10 23:53:08;;;;;;;1.50;1.17;;;;;;;17.97;62.81;97972.00;10430874;28;20420;-30
2022/11/10 23:58:28;;;;;;;1.80;1.23;;;;;;;17.99;62.69;97980.53;10438666;28;20037;-31
